Time;durP1;ratioP1;P1;durP2;ratioP2;P2;SDS_P1;SDS_P2;PMS_P1;PMS_P2;Temp;Humidity;BMP_temperature;BMP_pressure;BME280_temperature;BME280_humidity;BME280_pressure;Samples;Min_cycle;Max_cycle;Signal;HPM_P1;HPM_P2
2023/01/04 00:01:20;;;;;;;1.02;0.80;;;19.70;54.80;;;;;;6319156;28;20063;-69
2023/01/04 00:04:20;;;;;;;1.90;1.00;;;19.60;54.80;;;;;;6320233;28;20030;-68
2023/01/04 00:07:21;;;;;;;1.80;0.85;;;19.60;54.80;;;;;;6320679;28;20021;-68
2023/01/04 00:10:22;;;;;;;1.02;0.70;;;19.60;54.80;;;;;;6318845;28;20028;-68
2023/01/04 00:13:22;;;;;;;1.40;0.82;;;19.60;54.80;;;;;;6329559;28;20024;-68
2023/01/04 00:16:24;;;;;;;1.23;0.90;;;19.60;54.80;;;;;;6345275;28;20408;-68
2023/01/04 00:19:25;;;;;;;0.77;0.60;;;19.60;54.80;;;;;;6326616;28;20028;-68
2023/01/04 00:22:26;;;;;;;1.60;1.17;;;19.60;54.80;;;;;;6319819;28;20016;-68
2023/01/04 00:25:26;;;;;;;0.88;0.70;;;19.60;55.40;;;;;;6345189;28;20020;-69
2023/01/04 00:28:27;;;;;;;1.52;0.90;;;19.60;54.80;;;;;;6344895;28;20270;-69
2023/01/04 00:31:28;;;;;;;1.27;0.80;;;19.60;54.80;;;;;;6344461;28;20476;-68
2023/01/04 00:34:29;;;;;;;1.00;0.77;;;19.60;54.80;;;;;;6328720;28;20024;-68
2023/01/04 00:37:30;;;;;;;0.77;0.60;;;19.60;54.80;;;;;;6319581;28;20031;-68
2023/01/04 00:40:31;;;;;;;1.33;0.77;;;19.60;54.80;;;;;;6319223;28;20100;-68
2023/01/04 00:43:31;;;;;;;1.95;0.90;;;19.60;54.80;;;;;;6326707;28;20054;-68
2023/01/04 00:46:33;;;;;;;0.80;0.73;;;19.60;54.80;;;;;;6343018;28;20484;-69
2023/01/04 00:49:34;;;;;;;1.73;0.77;;;19.60;54.80;;;;;;6344609;28;20054;-68
2023/01/04 00:52:34;;;;;;;0.82;0.65;;;19.60;54.80;;;;;;6344287;28;20027;-68
2023/01/04 00:55:35;;;;;;;0.82;0.60;;;19.60;54.80;;;;;;6344073;28;20400;-68
2023/01/04 00:58:36;;;;;;;0.93;0.77;;;19.60;54.80;;;;;;6339418;28;20427;-68
2023/01/04 01:01:37;;;;;;;1.60;0.85;;;19.60;54.80;;;;;;6319041;28;20059;-68
2023/01/04 01:04:38;;;;;;;0.98;0.60;;;19.60;54.80;;;;;;6317422;28;20349;-68
2023/01/04 01:07:39;;;;;;;0.75;0.60;;;19.60;54.80;;;;;;6319068;28;20016;-68
2023/01/04 01:10:40;;;;;;;1.30;0.82;;;19.60;54.80;;;;;;6332909;28;20016;-68
2023/01/04 01:13:41;;;;;;;0.90;0.70;;;19.60;54.80;;;;;;6318869;28;20071;-68
2023/01/04 01:16:42;;;;;;;1.67;0.80;;;19.60;54.80;;;;;;6318708;28;20024;-68
2023/01/04 01:19:43;;;;;;;1.20;0.80;;;19.60;54.80;;;;;;6327043;28;20027;-68
2023/01/04 01:22:43;;;;;;;1.08;0.68;;;19.60;54.80;;;;;;6343734;28;20031;-68
2023/01/04 01:25:44;;;;;;;0.63;0.63;;;19.60;54.80;;;;;;6324349;28;20054;-68
2023/01/04 01:28:45;;;;;;;0.80;0.60;;;19.60;54.80;;;;;;6318553;28;20495;-68
2023/01/04 01:31:46;;;;;;;0.80;0.70;;;19.60;54.80;;;;;;6318564;28;20476;-68
2023/01/04 01:34:46;;;;;;;1.17;0.82;;;19.60;54.80;;;;;;6318368;28;20028;-69
2023/01/04 01:37:47;;;;;;;1.05;0.80;;;19.60;54.80;;;;;;6318165;28;20027;-68
2023/01/04 01:40:48;;;;;;;1.27;0.80;;;19.60;54.80;;;;;;6318067;28;20501;-68
2023/01/04 01:44:03;;;;;;;1.58;1.02;;;19.60;54.70;;;;;;6318029;28;20496;-68
2023/01/04 01:47:04;;;;;;;1.25;0.85;;;19.60;54.70;;;;;;6342614;28;20030;-68
2023/01/04 01:50:16;;;;;;;0.88;0.70;;;19.50;54.60;;;;;;6343009;28;20067;-68
2023/01/04 01:53:18;;;;;;;0.93;0.70;;;19.50;54.60;;;;;;6335454;28;20017;-68
2023/01/04 01:56:18;;;;;;;0.82;0.80;;;19.50;54.60;;;;;;6357479;28;20093;-68
2023/01/04 01:59:20;;;;;;;0.98;0.60;;;19.50;54.60;;;;;;6343513;28;20388;-68
2023/01/04 02:02:21;;;;;;;1.58;0.80;;;19.60;54.70;;;;;;6358697;28;20020;-68
2023/01/04 02:05:23;;;;;;;0.70;0.60;;;19.50;54.50;;;;;;6324890;28;20073;-68
2023/01/04 02:08:24;;;;;;;0.60;0.60;;;19.60;54.70;;;;;;6318183;28;20043;-68
2023/01/04 02:11:25;;;;;;;1.05;0.65;;;19.50;54.60;;;;;;6317510;28;20146;-68
2023/01/04 02:14:26;;;;;;;0.90;0.70;;;19.60;54.70;;;;;;6317545;28;20028;-68
2023/01/04 02:17:37;;;;;;;1.02;0.70;;;19.60;54.70;;;;;;6317882;28;20032;-69
2023/01/04 02:20:45;;;;;;;1.08;0.70;;;19.50;54.60;;;;;;6317769;28;20024;-68
2023/01/04 02:24:21;;;;;;;0.98;0.75;;;19.50;54.60;;;;;;6317045;28;20385;-68
2023/01/04 02:27:31;;;;;;;0.80;0.60;;;19.50;54.60;;;;;;6317703;28;20444;-68
2023/01/04 02:30:44;;;;;;;1.85;1.00;;;19.50;54.60;;;;;;6317685;28;20032;-68
2023/01/04 02:34:09;;;;;;;1.00;0.77;;;19.50;54.60;;;;;;6316099;28;20386;-68
2023/01/04 02:37:35;;;;;;;0.95;0.55;;;19.50;54.60;;;;;;6317517;28;20024;-68
2023/01/04 02:40:54;;;;;;;1.17;0.52;;;19.50;54.50;;;;;;6324605;28;20040;-69
2023/01/04 02:50:53;;;;;;;0.75;0.60;;;19.50;54.50;;;;;;6335414;28;20028;-68
2023/01/04 02:53:55;;;;;;;1.10;0.70;;;19.50;54.50;;;;;;6318491;28;20396;-71
2023/01/04 02:57:23;;;;;;;1.80;0.90;;;19.50;54.50;;;;;;6321998;28;20059;-68
2023/01/04 03:06:14;;;;;;;0.93;0.50;;;19.50;54.60;;;;;;6321868;28;20527;-68
2023/01/04 03:07:45;;;;;;;0.93;0.60;;;19.50;54.50;;;;;;6321711;28;20032;-68
2023/01/04 03:11:04;;;;;;;1.10;0.73;;;19.50;54.60;;;;;;6321318;28;20050;-68
2023/01/04 03:14:08;;;;;;;0.77;0.60;;;19.50;54.50;;;;;;6321248;28;20116;-68
2023/01/04 03:17:13;;;;;;;1.42;0.68;;;19.50;54.50;;;;;;6336616;28;20037;-68
2023/01/04 03:20:16;;;;;;;1.08;0.73;;;19.50;54.80;;;;;;6362453;27;20123;-68
2023/01/04 03:35:21;;;;;;;1.35;0.85;;;19.50;54.50;;;;;;6336698;28;20024;-68
2023/01/04 03:37:22;;;;;;;1.02;0.60;;;19.50;54.40;;;;;;6320898;28;20099;-68
2023/01/04 03:51:21;;;;;;;1.00;0.70;;;19.50;54.40;;;;;;6321275;28;20024;-68
2023/01/04 03:54:28;;;;;;;0.80;0.70;;;19.50;54.40;;;;;;6345877;28;20040;-68
2023/01/04 03:57:30;;;;;;;0.55;0.45;;;19.50;54.40;;;;;;6345285;28;20040;-68
2023/01/04 04:00:31;;;;;;;1.75;0.70;;;19.50;54.40;;;;;;6361957;27;20101;-68
2023/01/04 04:10:11;;;;;;;1.25;0.70;;;19.50;54.40;;;;;;6320195;28;20404;-68
2023/01/04 04:13:12;;;;;;;1.00;0.60;;;19.50;54.40;;;;;;6320109;28;20039;-68
2023/01/04 04:16:13;;;;;;;1.67;0.80;;;19.50;54.40;;;;;;6320068;28;20103;-68
2023/01/04 04:19:13;;;;;;;1.13;0.80;;;19.50;54.30;;;;;;6320262;28;20024;-68
2023/01/04 04:22:15;;;;;;;0.73;0.52;;;19.50;54.40;;;;;;6319811;28;20028;-68
2023/01/04 04:25:15;;;;;;;1.80;0.73;;;19.50;54.40;;;;;;6319872;28;20050;-68
2023/01/04 04:28:16;;;;;;;0.82;0.50;;;19.50;54.40;;;;;;6318446;28;20027;-68
2023/01/04 04:31:17;;;;;;;1.17;0.80;;;19.50;54.40;;;;;;6319955;28;20047;-69
2023/01/04 04:34:18;;;;;;;0.85;0.63;;;19.50;54.40;;;;;;6341985;28;20051;-68
2023/01/04 04:37:18;;;;;;;0.77;0.57;;;19.50;54.30;;;;;;6344627;28;20031;-68
2023/01/04 04:43:38;;;;;;;0.63;0.57;;;19.50;54.30;;;;;;6328812;28;20024;-69
2023/01/04 04:46:40;;;;;;;1.20;0.60;;;19.50;54.40;;;;;;6319439;28;20027;-68
2023/01/04 04:49:41;;;;;;;1.05;0.60;;;19.50;54.30;;;;;;6343253;28;20023;-69
2023/01/04 04:52:42;;;;;;;1.05;0.60;;;19.50;54.30;;;;;;6344200;28;20088;-68
2023/01/04 04:55:42;;;;;;;1.60;0.57;;;19.50;54.40;;;;;;6344227;28;20044;-68
2023/01/04 04:58:43;;;;;;;1.23;0.70;;;19.50;54.40;;;;;;6344207;28;20069;-69
2023/01/04 05:01:44;;;;;;;0.70;0.60;;;19.50;54.30;;;;;;6343992;28;20019;-69
2023/01/04 05:04:46;;;;;;;0.98;0.60;;;19.50;54.40;;;;;;6344302;28;20044;-68
2023/01/04 05:07:46;;;;;;;0.85;0.57;;;19.50;54.40;;;;;;6338890;28;20023;-68
2023/01/04 05:10:47;;;;;;;1.42;0.63;;;19.40;54.20;;;;;;6318850;28;20441;-68
2023/01/04 05:13:47;;;;;;;0.95;0.55;;;19.50;54.30;;;;;;6331376;28;20506;-69
2023/01/04 05:16:48;;;;;;;0.75;0.70;;;19.50;54.30;;;;;;6343381;28;20024;-68
2023/01/04 05:19:49;;;;;;;2.40;0.70;;;19.50;54.30;;;;;;6323067;28;20458;-69
2023/01/04 05:22:49;;;;;;;0.55;0.43;;;19.40;54.20;;;;;;6318482;28;20020;-68
2023/01/04 05:25:58;;;;;;;1.40;0.90;;;19.50;55.00;;;;;;6318524;28;20675;-69
2023/01/04 05:28:58;;;;;;;1.13;0.65;;;19.50;54.30;;;;;;6318000;28;20107;-68
2023/01/04 05:31:59;;;;;;;0.70;0.57;;;19.50;54.30;;;;;;6318474;28;20020;-69
2023/01/04 05:35:00;;;;;;;0.50;0.50;;;19.50;54.30;;;;;;6338532;28;20060;-69
2023/01/04 05:38:00;;;;;;;1.10;0.70;;;19.50;54.30;;;;;;6343715;28;20384;-69
2023/01/04 05:41:01;;;;;;;0.70;0.50;;;19.40;54.20;;;;;;6343460;28;20031;-68
2023/01/04 05:44:02;;;;;;;2.13;0.60;;;19.40;54.20;;;;;;6331401;28;20477;-68
2023/01/04 05:47:02;;;;;;;0.90;0.60;;;19.40;54.20;;;;;;6318119;28;20031;-69
2023/01/04 05:50:04;;;;;;;1.02;0.77;;;19.40;54.10;;;;;;6324575;28;20194;-69
2023/01/04 05:53:07;;;;;;;1.45;0.68;;;19.50;54.30;;;;;;6318080;28;20040;-69
2023/01/04 05:56:08;;;;;;;1.05;0.50;;;19.40;54.10;;;;;;6317598;28;20052;-68
2023/01/04 05:59:08;;;;;;;1.33;0.57;;;19.40;54.20;;;;;;6325826;28;20100;-69
2023/01/04 06:02:19;;;;;;;0.95;0.50;;;19.50;54.30;;;;;;6318405;28;20040;-68
2023/01/04 06:05:21;;;;;;;0.73;0.57;;;19.50;54.30;;;;;;6293004;28;20099;-71
2023/01/04 06:08:21;;;;;;;0.73;0.50;;;19.40;54.20;;;;;;6319286;28;20570;-68
2023/01/04 06:11:22;;;;;;;1.25;0.68;;;19.40;54.10;;;;;;6332677;28;20036;-69
2023/01/04 06:14:23;;;;;;;1.10;0.60;;;19.40;54.10;;;;;;6317672;28;20016;-68
2023/01/04 06:17:23;;;;;;;0.70;0.50;;;19.50;54.30;;;;;;6317886;28;20031;-68
2023/01/04 06:20:24;;;;;;;0.70;0.60;;;19.50;54.30;;;;;;6317376;28;20038;-69
2023/01/04 06:23:25;;;;;;;0.80;0.43;;;19.40;54.20;;;;;;6317613;28;20068;-68
2023/01/04 06:26:26;;;;;;;0.73;0.50;;;19.40;54.10;;;;;;6343114;28;20091;-69
2023/01/04 06:29:27;;;;;;;0.70;0.52;;;19.40;54.10;;;;;;6344242;28;20020;-69
2023/01/04 06:32:28;;;;;;;0.75;0.57;;;19.40;54.10;;;;;;6347886;28;20081;-68
2023/01/04 06:35:28;;;;;;;1.00;0.60;;;19.40;54.10;;;;;;6347507;28;20051;-69
2023/01/04 06:38:29;;;;;;;0.50;0.40;;;19.40;54.80;;;;;;6347751;28;20050;-68
2023/01/04 06:41:30;;;;;;;3.42;0.52;;;19.40;54.80;;;;;;6347556;28;20027;-68
2023/01/04 06:44:31;;;;;;;0.73;0.52;;;19.40;54.10;;;;;;6339751;28;20024;-68
2023/01/04 06:47:32;;;;;;;1.48;0.60;;;19.40;54.10;;;;;;6322512;28;20024;-68
2023/01/04 06:50:32;;;;;;;1.63;1.02;;;19.40;54.10;;;;;;6321986;28;20032;-68
2023/01/04 06:53:33;;;;;;;1.08;0.47;;;19.40;54.10;;;;;;6322004;28;20020;-68
2023/01/04 06:56:34;;;;;;;0.63;0.50;;;19.40;54.10;;;;;;6320469;28;20066;-68
2023/01/04 06:59:35;;;;;;;0.70;0.43;;;19.50;54.20;;;;;;6322881;28;20438;-68
2023/01/04 07:02:35;;;;;;;0.38;0.38;;;19.40;54.10;;;;;;6324708;28;20027;-68
2023/01/04 07:05:36;;;;;;;1.25;0.50;;;19.40;54.10;;;;;;6336012;28;20016;-68
2023/01/04 07:08:37;;;;;;;0.70;0.50;;;19.40;54.20;;;;;;6349216;28;20051;-68
2023/01/04 07:11:37;;;;;;;1.02;0.55;;;19.40;54.10;;;;;;6328269;28;20088;-69
2023/01/04 07:14:38;;;;;;;1.00;0.60;;;19.40;54.10;;;;;;6323277;28;20700;-69
2023/01/04 07:17:39;;;;;;;1.00;0.60;;;19.40;54.10;;;;;;6323049;28;20035;-69
2023/01/04 07:20:39;;;;;;;1.50;0.65;;;19.40;54.10;;;;;;6322349;28;20540;-69
2023/01/04 07:23:40;;;;;;;0.50;0.40;;;19.40;54.00;;;;;;6323069;28;20648;-69
2023/01/04 07:26:41;;;;;;;0.65;0.55;;;19.40;54.10;;;;;;6321404;28;20043;-69
2023/01/04 07:29:43;;;;;;;0.50;0.50;;;19.40;54.10;;;;;;6322841;28;20381;-69
2023/01/04 07:32:43;;;;;;;0.90;0.40;;;19.40;54.10;;;;;;6323174;28;20039;-69
2023/01/04 07:35:44;;;;;;;0.50;0.40;;;19.40;54.10;;;;;;6323162;28;20464;-69
2023/01/04 07:38:45;;;;;;;0.80;0.52;;;19.40;54.10;;;;;;6322971;28;20074;-69
2023/01/04 07:41:47;;;;;;;1.35;0.63;;;19.40;54.10;;;;;;6322598;28;20844;-70
2023/01/04 07:44:47;;;;;;;1.02;0.60;;;19.40;54.10;;;;;;6322823;28;20106;-69
2023/01/04 07:47:48;;;;;;;0.60;0.50;;;19.40;54.10;;;;;;6322752;28;20039;-69
2023/01/04 07:50:49;;;;;;;0.90;0.50;;;19.40;54.00;;;;;;6322785;28;20476;-69
2023/01/04 07:53:50;;;;;;;0.55;0.40;;;19.40;54.10;;;;;;6320921;28;20030;-69
2023/01/04 07:56:51;;;;;;;1.70;0.60;;;19.40;54.00;;;;;;6322464;28;20044;-69
2023/01/04 07:59:52;;;;;;;1.02;0.55;;;19.40;54.00;;;;;;6322473;28;20028;-69
2023/01/04 08:02:52;;;;;;;0.50;0.40;;;19.40;54.00;;;;;;6346346;28;20068;-69
2023/01/04 08:05:53;;;;;;;1.17;0.70;;;19.40;54.00;;;;;;6347842;28;20023;-69
2023/01/04 08:08:54;;;;;;;0.82;0.45;;;19.40;54.00;;;;;;6336804;28;20538;-69
2023/01/04 08:11:54;;;;;;;0.28;0.28;;;19.40;54.00;;;;;;6312426;28;20405;-69
2023/01/04 08:14:55;;;;;;;0.60;0.43;;;19.40;54.80;;;;;;6296024;28;20091;-69
2023/01/04 08:17:56;;;;;;;0.57;0.40;;;19.40;54.10;;;;;;6340907;28;20027;-69
2023/01/04 08:21:05;;;;;;;0.70;0.43;;;19.40;54.10;;;;;;6347793;28;20384;-69
2023/01/04 08:24:08;;;;;;;1.10;0.60;;;19.40;54.10;;;;;;6345789;28;20438;-69
2023/01/04 08:27:09;;;;;;;0.43;0.30;;;19.40;54.10;;;;;;6345926;28;20023;-70
2023/01/04 08:30:11;;;;;;;0.93;0.50;;;19.40;54.10;;;;;;6347328;28;20027;-69
2023/01/04 08:33:13;;;;;;;0.80;0.45;;;19.40;54.10;;;;;;6347126;28;20027;-69
2023/01/04 08:36:29;;;;;;;0.77;0.50;;;19.40;54.10;;;;;;6340990;27;20031;-70
2023/01/04 08:39:34;;;;;;;1.15;0.40;;;19.40;54.10;;;;;;6320170;28;20028;-69
2023/01/04 08:42:34;;;;;;;0.70;0.40;;;19.40;54.10;;;;;;6321817;28;20024;-70
2023/01/04 08:45:35;;;;;;;0.95;0.50;;;19.40;54.10;;;;;;6321639;28;20577;-69
2023/01/04 08:48:37;;;;;;;0.50;0.50;;;19.40;54.10;;;;;;6321570;28;20024;-70
2023/01/04 08:51:37;;;;;;;1.08;0.40;;;19.40;54.10;;;;;;6320664;28;20027;-69
2023/01/04 08:54:38;;;;;;;1.75;0.38;;;19.40;54.10;;;;;;6320453;28;20066;-69
2023/01/04 08:57:39;;;;;;;0.60;0.40;;;19.40;54.10;;;;;;6335183;28;20127;-70
2023/01/04 09:00:40;;;;;;;0.70;0.40;;;19.40;54.10;;;;;;6346799;28;20033;-69
2023/01/04 09:03:41;;;;;;;0.85;0.50;;;19.40;54.10;;;;;;6346445;28;20019;-69
2023/01/04 09:06:42;;;;;;;0.75;0.50;;;19.40;54.00;;;;;;6346813;28;20046;-69
2023/01/04 09:09:43;;;;;;;0.45;0.32;;;19.40;54.10;;;;;;6346420;28;20023;-69
2023/01/04 09:12:44;;;;;;;0.52;0.45;;;19.40;54.00;;;;;;6324686;28;20497;-69
2023/01/04 09:15:45;;;;;;;0.32;0.30;;;19.40;54.00;;;;;;6320743;28;20229;-69
2023/01/04 09:18:46;;;;;;;0.68;0.50;;;19.40;54.10;;;;;;6341239;28;20038;-69
2023/01/04 09:21:47;;;;;;;0.75;0.50;;;19.40;54.00;;;;;;6344535;28;20019;-69
2023/01/04 09:24:47;;;;;;;0.70;0.45;;;19.40;54.10;;;;;;6342922;28;20038;-69
2023/01/04 09:27:48;;;;;;;1.35;0.60;;;19.40;54.00;;;;;;6320954;28;20065;-69
2023/01/04 09:30:48;;;;;;;0.35;0.30;;;19.40;54.10;;;;;;6320668;28;20389;-69
2023/01/04 09:33:49;;;;;;;0.60;0.57;;;19.40;54.00;;;;;;6319633;28;20145;-69
2023/01/04 09:36:51;;;;;;;0.68;0.47;;;19.40;54.10;;;;;;6338122;28;20067;-70
2023/01/04 09:39:51;;;;;;;1.13;0.40;;;19.40;54.10;;;;;;6305559;28;20031;-70
2023/01/04 09:42:53;;;;;;;1.02;0.47;;;19.40;54.10;;;;;;6322621;28;20110;-70
2023/01/04 09:45:59;;;;;;;0.60;0.38;;;19.40;54.10;;;;;;6333872;28;20024;-70
2023/01/04 09:49:32;;;;;;;0.40;0.40;;;19.40;54.20;;;;;;6343037;27;20073;-70
2023/01/04 09:52:47;;;;;;;2.95;0.77;;;19.40;54.20;;;;;;6313408;28;20050;-71
2023/01/04 09:55:50;;;;;;;3.97;0.60;;;19.40;54.30;;;;;;6339677;28;20123;-70
2023/01/04 09:58:53;;;;;;;3.58;1.73;;;19.40;54.50;;;;;;6319894;28;20024;-71
2023/01/04 10:02:09;;;;;;;5.10;1.58;;;19.40;54.80;;;;;;6320280;28;20107;-71
2023/01/04 10:05:19;;;;;;;9.15;1.52;;;19.50;54.80;;;;;;6342959;28;20023;-70
2023/01/04 10:08:20;;;;;;;2.40;1.23;;;19.50;54.80;;;;;;6353380;27;20494;-70
2023/01/04 10:11:24;;;;;;;3.58;1.52;;;19.50;54.90;;;;;;6318798;28;20028;-67
2023/01/04 10:14:54;;;;;;;3.58;1.50;;;19.50;55.00;;;;;;6319347;28;20026;-70
2023/01/04 10:18:14;;;;;;;3.60;1.50;;;19.50;55.10;;;;;;6352251;28;20035;-70
2023/01/04 10:21:30;;;;;;;6.00;1.95;;;19.40;55.20;;;;;;6328443;28;20032;-70
2023/01/04 10:24:57;;;;;;;6.47;1.63;;;19.50;55.60;;;;;;6334306;28;20023;-70
2023/01/04 10:28:15;;;;;;;9.77;2.15;;;19.50;55.60;;;;;;6337511;27;20540;-71
2023/01/04 10:31:37;;;;;;;7.40;1.80;;;19.50;55.30;;;;;;6333028;28;20044;-69
2023/01/04 10:34:43;;;;;;;5.82;1.50;;;19.50;55.20;;;;;;6329376;28;20526;-70
2023/01/04 10:37:47;;;;;;;5.93;1.73;;;19.50;55.30;;;;;;6351779;28;20059;-70
2023/01/04 10:40:47;;;;;;;5.07;1.80;;;19.50;55.30;;;;;;6341601;27;20814;-70
2023/01/04 10:44:04;;;;;;;7.53;1.63;;;19.50;55.30;;;;;;6306927;28;20028;-70
2023/01/04 10:47:49;;;;;;;5.25;1.58;;;19.50;55.30;;;;;;6323219;28;20031;-70
2023/01/04 10:50:59;;;;;;;4.30;1.40;;;19.50;55.30;;;;;;6298545;28;20035;-70
2023/01/04 10:54:32;;;;;;;3.92;1.23;;;19.50;55.30;;;;;;6328042;28;20020;-70
2023/01/04 10:57:45;;;;;;;2.97;1.65;;;19.50;55.30;;;;;;6351201;28;20082;-70
2023/01/04 11:00:55;;;;;;;4.20;1.23;;;19.40;55.20;;;;;;6344336;28;20024;-70
2023/01/04 11:04:04;;;;;;;2.17;1.15;;;19.50;55.20;;;;;;6330259;28;20499;-70
2023/01/04 11:07:19;;;;;;;4.40;1.50;;;19.50;55.20;;;;;;6352609;28;20030;-70
2023/01/04 11:10:26;;;;;;;2.15;1.00;;;19.40;55.10;;;;;;6336011;27;20027;-70
2023/01/04 11:13:27;;;;;;;2.80;1.27;;;19.50;55.20;;;;;;6326512;28;20024;-69
2023/01/04 11:16:29;;;;;;;3.83;1.20;;;19.40;55.00;;;;;;6347762;28;20077;-70
2023/01/04 11:19:31;;;;;;;3.95;1.10;;;19.40;55.00;;;;;;6337669;28;20028;-69
2023/01/04 11:22:39;;;;;;;3.10;1.20;;;19.40;55.00;;;;;;6336150;27;20051;-70
2023/01/04 11:25:54;;;;;;;1.90;1.00;;;19.40;55.00;;;;;;6317858;28;20027;-70
2023/01/04 11:29:01;;;;;;;2.25;1.10;;;19.40;55.00;;;;;;6315684;28;20039;-69
2023/01/04 11:32:12;;;;;;;4.75;1.27;;;19.40;55.00;;;;;;6324521;28;20020;-69
2023/01/04 11:35:13;;;;;;;4.30;1.08;;;19.40;55.00;;;;;;6341600;28;20437;-70
2023/01/04 11:38:23;;;;;;;3.22;1.42;;;19.40;55.00;;;;;;6339383;28;20069;-70
2023/01/04 11:41:25;;;;;;;4.47;1.02;;;19.50;55.00;;;;;;6312765;28;20024;-71
2023/01/04 11:44:26;;;;;;;1.52;0.80;;;19.50;55.00;;;;;;6321945;28;20028;-72
2023/01/04 11:47:27;;;;;;;4.72;0.90;;;19.50;54.70;;;;;;6339435;28;20019;-70
2023/01/04 11:50:40;;;;;;;4.70;1.20;;;19.60;54.60;;;;;;6334729;28;20108;-71
2023/01/04 11:53:41;;;;;;;1.73;0.82;;;19.60;54.50;;;;;;6297298;28;20024;-71
2023/01/04 11:57:17;;;;;;;1.88;1.00;;;19.60;54.50;;;;;;6315985;28;20066;-71
2023/01/04 12:00:18;;;;;;;1.38;0.77;;;19.60;54.40;;;;;;6336193;28;20032;-73
2023/01/04 12:03:36;;;;;;;1.40;1.00;;;19.60;54.40;;;;;;6331875;28;20027;-70
2023/01/04 12:06:42;;;;;;;1.55;0.77;;;19.60;54.40;;;;;;6322229;28;20389;-70
2023/01/04 12:09:43;;;;;;;3.13;0.93;;;19.60;54.40;;;;;;6316683;28;20115;-71
2023/01/04 12:12:44;;;;;;;2.13;0.90;;;19.60;54.40;;;;;;6337381;28;20524;-69
2023/01/04 12:16:12;;;;;;;1.10;0.73;;;19.60;54.50;;;;;;6345347;28;20393;-69
2023/01/04 12:19:15;;;;;;;1.80;1.00;;;19.60;54.50;;;;;;6346787;28;20019;-69
2023/01/04 12:22:38;;;;;;;4.80;0.80;;;19.60;54.50;;;;;;6333237;28;20484;-69
2023/01/04 12:25:50;;;;;;;2.05;0.90;;;19.60;54.50;;;;;;6304987;28;20431;-70
2023/01/04 12:29:21;;;;;;;2.45;1.00;;;19.60;54.50;;;;;;6324506;28;20714;-71
2023/01/04 12:32:21;;;;;;;1.58;0.75;;;19.60;54.50;;;;;;6324743;28;20035;-70
2023/01/04 12:35:56;;;;;;;5.97;1.00;;;19.60;54.50;;;;;;6346167;28;20058;-71
2023/01/04 12:39:13;;;;;;;5.70;0.80;;;19.70;55.10;;;;;;6329677;28;20021;-71
2023/01/04 12:42:23;;;;;;;3.60;1.00;;;19.70;55.20;;;;;;6305084;28;20024;-70
2023/01/04 12:45:24;;;;;;;3.40;1.15;;;19.80;54.70;;;;;;6340542;28;20430;-70
2023/01/04 12:51:47;;;;;;;4.03;1.10;;;19.70;54.30;;;;;;6320214;28;20114;-70
2023/01/04 12:54:47;;;;;;;2.03;0.90;;;19.70;54.40;;;;;;6320179;28;20400;-70
2023/01/04 12:57:48;;;;;;;2.15;0.85;;;19.70;55.10;;;;;;6327714;28;20484;-70
2023/01/04 13:00:49;;;;;;;1.55;0.70;;;19.70;54.50;;;;;;6345904;28;20030;-70
2023/01/04 13:03:55;;;;;;;2.58;0.80;;;19.60;54.50;;;;;;6311175;28;20103;-70
2023/01/04 13:07:13;;;;;;;1.05;0.60;;;19.60;54.50;;;;;;6319490;28;20027;-70
2023/01/04 13:10:17;;;;;;;0.93;0.50;;;19.60;54.50;;;;;;6327170;28;20027;-69
2023/01/04 13:13:39;;;;;;;1.55;0.60;;;19.60;54.50;;;;;;6320271;28;20076;-70
2023/01/04 13:16:45;;;;;;;2.80;0.90;;;19.70;54.60;;;;;;6320076;28;20031;-70
2023/01/04 13:19:46;;;;;;;1.38;0.70;;;19.70;54.60;;;;;;6318888;28;20492;-69
2023/01/04 13:22:54;;;;;;;1.65;0.70;;;19.60;54.60;;;;;;6319528;28;20024;-70
2023/01/04 13:25:55;;;;;;;0.70;0.65;;;19.60;54.60;;;;;;6319736;28;20384;-70
2023/01/04 13:29:26;;;;;;;1.08;0.70;;;19.60;54.70;;;;;;6312616;28;20028;-71
2023/01/04 13:32:32;;;;;;;2.53;0.85;;;19.60;54.60;;;;;;6318893;28;20127;-71
2023/01/04 13:35:33;;;;;;;2.45;0.80;;;19.60;54.50;;;;;;6320685;28;20439;-71
2023/01/04 13:38:35;;;;;;;1.63;0.80;;;19.70;54.60;;;;;;6337361;28;20035;-71
2023/01/04 13:41:36;;;;;;;3.00;0.85;;;19.70;54.50;;;;;;6327152;28;20062;-72
2023/01/04 13:44:36;;;;;;;3.58;0.60;;;19.70;54.50;;;;;;6330383;28;20464;-68
2023/01/04 13:47:39;;;;;;;1.75;0.90;;;19.70;54.60;;;;;;6319970;28;20024;-68
2023/01/04 13:50:48;;;;;;;6.35;1.00;;;19.70;54.50;;;;;;6342187;28;20090;-68
2023/01/04 13:53:57;;;;;;;2.80;0.88;;;19.70;54.40;;;;;;6344515;28;20113;-68
2023/01/04 13:57:07;;;;;;;8.00;0.90;;;19.60;54.30;;;;;;6336277;28;20048;-68
2023/01/04 14:00:13;;;;;;;5.13;1.05;;;19.60;54.40;;;;;;6336593;28;20033;-68
2023/01/04 14:03:21;;;;;;;;;;;19.70;54.50;;;;;;6345177;28;20423;-68
2023/01/04 14:06:38;;;;;;;4.60;0.90;;;19.60;54.30;;;;;;6345027;28;19904;-68
2023/01/04 14:09:48;;;;;;;2.50;0.95;;;19.60;54.40;;;;;;6332449;28;20048;-68
2023/01/04 14:12:49;;;;;;;4.93;0.80;;;19.60;54.40;;;;;;6333114;28;20015;-68
2023/01/04 14:16:19;;;;;;;1.08;0.60;;;19.60;54.40;;;;;;6344636;28;20507;-68
2023/01/04 14:19:38;;;;;;;3.40;1.05;;;19.60;54.40;;;;;;6326216;28;20036;-68
2023/01/04 14:22:44;;;;;;;1.85;0.80;;;19.60;54.40;;;;;;6344413;28;20023;-68
2023/01/04 14:25:48;;;;;;;1.58;0.80;;;19.60;54.40;;;;;;6324754;28;20103;-69
2023/01/04 14:28:49;;;;;;;1.17;0.70;;;19.60;54.40;;;;;;6298098;28;20052;-68
2023/01/04 14:31:50;;;;;;;1.10;0.70;;;19.60;54.40;;;;;;6319783;28;20027;-68
2023/01/04 14:34:52;;;;;;;1.02;0.63;;;19.60;54.40;;;;;;6327865;28;20098;-68
2023/01/04 14:37:53;;;;;;;1.55;0.70;;;19.60;54.40;;;;;;6344533;28;20107;-68
2023/01/04 14:40:54;;;;;;;2.17;1.00;;;19.60;54.40;;;;;;6326701;28;20092;-68
2023/01/04 14:44:15;;;;;;;0.98;0.80;;;19.60;54.40;;;;;;6315323;28;20388;-68
2023/01/04 14:47:16;;;;;;;1.50;0.77;;;19.70;54.50;;;;;;6316841;28;20064;-71
2023/01/04 14:50:17;;;;;;;3.33;0.73;;;19.70;54.50;;;;;;6319708;28;20026;-69
2023/01/04 14:53:18;;;;;;;0.93;0.70;;;19.60;54.30;;;;;;6323069;28;20508;-69
2023/01/04 14:56:18;;;;;;;2.10;0.93;;;19.70;54.40;;;;;;6322813;28;20054;-69
2023/01/04 14:59:22;;;;;;;2.28;1.00;;;19.70;54.30;;;;;;6322517;28;20437;-69
2023/01/04 15:02:25;;;;;;;2.72;1.25;;;19.70;54.20;;;;;;6321780;28;20016;-69
2023/01/04 15:05:26;;;;;;;1.65;0.85;;;19.70;54.30;;;;;;6308205;28;20537;-68
2023/01/04 15:08:26;;;;;;;6.78;0.93;;;19.70;54.30;;;;;;6322800;28;20024;-68
2023/01/04 15:11:27;;;;;;;4.40;1.20;;;19.70;54.40;;;;;;6322542;28;20051;-68
2023/01/04 15:14:28;;;;;;;5.05;1.33;;;19.60;54.40;;;;;;6315133;28;20031;-68
2023/01/04 15:17:29;;;;;;;2.38;1.27;;;19.60;54.40;;;;;;6313102;28;20025;-68
2023/01/04 15:20:30;;;;;;;3.55;1.15;;;19.60;54.50;;;;;;6321511;28;20024;-68
2023/01/04 15:23:30;;;;;;;1.77;1.00;;;19.60;54.50;;;;;;6321706;28;20027;-68
2023/01/04 15:26:31;;;;;;;1.70;0.98;;;19.70;54.60;;;;;;6322798;28;20028;-68
2023/01/04 15:29:33;;;;;;;4.20;1.25;;;19.60;54.40;;;;;;6322126;28;20020;-68
2023/01/04 15:32:35;;;;;;;4.10;1.52;;;19.60;54.50;;;;;;6322341;28;20028;-68
2023/01/04 15:35:36;;;;;;;2.28;1.10;;;19.60;54.50;;;;;;6322767;28;20032;-67
2023/01/04 15:38:37;;;;;;;1.88;1.17;;;19.60;54.50;;;;;;6322517;28;20552;-69
2023/01/04 15:44:58;;;;;;;2.13;1.20;;;19.60;54.50;;;;;;6321809;28;20017;-69
2023/01/04 15:48:04;;;;;;;3.17;1.10;;;19.60;54.50;;;;;;6319772;28;20059;-70
2023/01/04 15:51:09;;;;;;;2.58;1.20;;;19.70;54.80;;;;;;6321623;28;20055;-70
2023/01/04 15:54:10;;;;;;;2.88;1.00;;;19.80;54.60;;;;;;6320059;28;20404;-70
2023/01/04 15:57:12;;;;;;;8.07;2.03;;;19.90;54.40;;;;;;6320744;28;20082;-71
2023/01/04 16:00:13;;;;;;;3.78;1.42;;;20.00;54.40;;;;;;6318969;28;20024;-70
2023/01/04 16:03:14;;;;;;;7.82;2.30;;;20.00;54.30;;;;;;6322008;28;20091;-71
2023/01/04 16:06:16;;;;;;;9.77;2.05;;;20.10;54.00;;;;;;6336549;28;20480;-71
2023/01/04 16:09:17;;;;;;;7.70;1.67;;;20.20;53.90;;;;;;6320966;28;20024;-70
2023/01/04 16:15:37;;;;;;;4.05;1.45;;;20.10;53.60;;;;;;6332403;28;20028;-70
2023/01/04 16:18:43;;;;;;;4.47;1.75;;;20.20;53.60;;;;;;6319634;28;20118;-70
2023/01/04 16:21:44;;;;;;;8.57;1.30;;;20.20;53.70;;;;;;6328568;28;20028;-70
2023/01/04 16:24:44;;;;;;;3.95;1.42;;;20.20;53.70;;;;;;6319602;28;20020;-68
2023/01/04 16:27:45;;;;;;;4.78;1.55;;;20.20;53.70;;;;;;6321088;28;20578;-67
2023/01/04 16:30:51;;;;;;;3.75;1.20;;;20.10;53.70;;;;;;6320555;28;20035;-69
2023/01/04 16:33:53;;;;;;;2.55;1.20;;;20.10;53.70;;;;;;6323217;28;20035;-73
2023/01/04 16:36:53;;;;;;;6.13;1.20;;;20.10;53.10;;;;;;6337537;28;20036;-69
2023/01/04 16:39:54;;;;;;;4.80;1.60;;;20.10;53.10;;;;;;6319532;28;20057;-68
2023/01/04 16:42:55;;;;;;;3.45;1.20;;;20.00;52.90;;;;;;6310647;28;20060;-70
2023/01/04 16:46:11;;;;;;;2.60;1.30;;;20.00;52.40;;;;;;6293633;28;20473;-70
2023/01/04 16:49:14;;;;;;;4.85;1.38;;;20.00;52.60;;;;;;6294993;28;20078;-69
2023/01/04 16:52:14;;;;;;;9.70;1.55;;;20.10;52.60;;;;;;6311732;28;20034;-70
2023/01/04 16:55:15;;;;;;;4.32;1.42;;;20.10;52.80;;;;;;6328718;28;20028;-70